Madison, Florida
Current Conditions -  °F | °C
As of 5:07 PM on Monday 24 Nov 2014 (Local Time) from KVLD Reporting Station
Moderate Rain Moderate Rain  
Wind Chill: 66°   Ceiling: 6500
Heat Index: 66°   Visibility: 3mi
Dew Point: 64°   Wind: 0mph
Humidity: 93%   Direction: NA
Pressure: 29.89"   Gusts: NA
Location:  30.47°N, 83.42°W
Report Text: KVLD 242207Z AUTO 00000KT 3SM RA BR FEW012 BKN065 OVC080 19/18 A2989 RMK AO2 TSE07 PRESFR P0005 T01890178
Loading
Personal Weather Stations






























Interactive Weather Map New forecast layout! Learn more

10-Day Weather Forecast

Advertisements
Track Severe Weather on mobile